Time;durP1;ratioP1;P1;durP2;ratioP2;P2;SDS_P1;SDS_P2;PMS_P1;PMS_P2;Temp;Humidity;BMP_temperature;BMP_pressure;BME280_temperature;BME280_humidity;BME280_pressure;Samples;Min_cycle;Max_cycle;Signal;HPM_P1;HPM_P2
2023/06/15 00:01:22;;;;;;;6.53;4.05;;;16.40;99.90;;;;;;5171922;27;20496;-87
2023/06/15 00:03:48;;;;;;;6.32;3.70;;;16.50;99.90;;;;;;5158412;27;20557;-87
2023/06/15 00:06:13;;;;;;;9.02;4.57;;;16.40;99.90;;;;;;5179294;27;20038;-87
2023/06/15 00:08:40;;;;;;;6.90;4.43;;;16.40;99.90;;;;;;5153304;27;20035;-88
2023/06/15 00:11:05;;;;;;;9.35;3.67;;;16.40;99.90;;;;;;5171424;27;20034;-87
2023/06/15 00:13:31;;;;;;;7.60;4.57;;;16.30;99.90;;;;;;5171514;27;20041;-86
2023/06/15 00:15:57;;;;;;;7.70;4.28;;;16.40;99.90;;;;;;5152715;27;20026;-87
2023/06/15 00:18:22;;;;;;;7.25;3.85;;;16.30;99.90;;;;;;5152165;27;20035;-87
2023/06/15 00:20:48;;;;;;;13.35;5.32;;;16.30;99.90;;;;;;5152789;27;20034;-88
2023/06/15 00:23:17;;;;;;;7.32;3.85;;;16.20;99.90;;;;;;5135387;27;20053;-87
2023/06/15 00:25:43;;;;;;;10.00;3.88;;;16.30;99.90;;;;;;5125741;27;20110;-87
2023/06/15 00:28:08;;;;;;;7.47;3.72;;;16.30;99.90;;;;;;5150285;27;20377;-86
2023/06/15 00:30:35;;;;;;;7.55;4.43;;;16.30;99.90;;;;;;5115026;27;20349;-87
2023/06/15 00:33:00;;;;;;;6.43;4.63;;;16.30;99.90;;;;;;5131734;27;20057;-87
2023/06/15 00:35:26;;;;;;;6.78;3.88;;;16.20;99.90;;;;;;5139031;27;20026;-87
2023/06/15 00:37:51;;;;;;;7.55;4.15;;;16.20;99.90;;;;;;5152727;27;20034;-87
2023/06/15 00:40:17;;;;;;;7.22;4.90;;;16.30;99.90;;;;;;5135350;27;20035;-87
2023/06/15 00:42:44;;;;;;;15.95;4.35;;;16.20;99.90;;;;;;5135386;27;20113;-88
2023/06/15 00:45:10;;;;;;;9.43;4.63;;;16.20;99.90;;;;;;5170683;27;20067;-88
2023/06/15 00:47:39;;;;;;;8.75;5.22;;;16.10;99.90;;;;;;5170818;27;20038;-87
2023/06/15 00:50:10;;;;;;;8.13;4.40;;;16.10;99.90;;;;;;5152566;27;20077;-88
2023/06/15 00:52:37;;;;;;;7.68;4.40;;;16.10;99.90;;;;;;5152392;27;20391;-87
2023/06/15 00:55:05;;;;;;;8.27;6.30;;;16.10;99.90;;;;;;5152268;27;20101;-88
2023/06/15 00:57:32;;;;;;;8.90;4.88;;;16.10;99.90;;;;;;5152469;27;20114;-85
2023/06/15 00:59:58;;;;;;;8.60;5.25;;;16.10;99.90;;;;;;5172589;27;20064;-86
2023/06/15 01:02:24;;;;;;;9.05;6.68;;;16.10;99.90;;;;;;5140042;27;20034;-86
2023/06/15 01:04:50;;;;;;;10.15;7.68;;;16.10;99.90;;;;;;5155346;27;20483;-87
2023/06/15 01:07:20;;;;;;;11.57;7.10;;;16.00;99.90;;;;;;5155526;27;20046;-88
2023/06/15 01:09:47;;;;;;;9.13;6.20;;;15.90;99.90;;;;;;5175379;27;20415;-88
2023/06/15 01:12:13;;;;;;;10.82;5.80;;;15.90;99.90;;;;;;5138605;27;20069;-87
2023/06/15 01:14:40;;;;;;;9.85;5.30;;;15.90;99.90;;;;;;5155537;27;20043;-88
2023/06/15 01:17:15;;;;;;;9.90;6.90;;;15.80;99.90;;;;;;5169553;27;20042;-88
2023/06/15 01:19:57;;;;;;;11.25;6.22;;;15.80;99.90;;;;;;5151942;27;20050;-87
2023/06/15 01:22:59;;;;;;;9.82;5.75;;;15.70;99.90;;;;;;5156186;27;20038;-87
2023/06/15 01:25:43;;;;;;;11.50;6.57;;;15.60;99.90;;;;;;5155346;27;20487;-87
2023/06/15 01:28:10;;;;;;;8.82;5.43;;;15.50;99.90;;;;;;5174825;27;20080;-87
2023/06/15 01:30:48;;;;;;;9.18;5.47;;;15.50;99.90;;;;;;5173951;27;20097;-88
2023/06/15 01:33:15;;;;;;;10.23;7.93;;;15.50;99.90;;;;;;5155704;27;20034;-87
2023/06/15 01:35:41;;;;;;;7.20;5.93;;;15.60;99.90;;;;;;5174483;27;20026;-87
2023/06/15 01:38:07;;;;;;;11.57;8.38;;;15.40;99.90;;;;;;5155817;27;20083;-88
2023/06/15 01:40:44;;;;;;;12.23;8.98;;;15.40;99.90;;;;;;5155626;27;20046;-87
2023/06/15 01:43:13;;;;;;;11.35;10.13;;;15.30;99.90;;;;;;5138374;27;20066;-87
2023/06/15 01:45:43;;;;;;;13.32;12.15;;;15.40;99.90;;;;;;5155306;27;20066;-87
2023/06/15 01:48:10;;;;;;;10.65;9.50;;;15.40;99.90;;;;;;5174426;27;20091;-87
2023/06/15 01:50:36;;;;;;;11.38;9.50;;;15.30;99.90;;;;;;5138225;27;20042;-88
2023/06/15 01:53:03;;;;;;;14.07;12.80;;;15.20;99.90;;;;;;5138364;27;20097;-87
2023/06/15 01:55:28;;;;;;;13.13;11.82;;;15.10;99.90;;;;;;5158284;27;20109;-89
2023/06/15 01:57:55;;;;;;;14.82;11.68;;;15.10;99.90;;;;;;5178017;27;20959;-86
2023/06/15 02:00:22;;;;;;;13.63;12.45;;;15.00;99.90;;;;;;5175984;27;20042;-87
2023/06/15 02:02:48;;;;;;;12.05;10.38;;;15.00;99.90;;;;;;5173696;27;20034;-87
2023/06/15 02:05:14;;;;;;;17.13;14.38;;;15.00;99.90;;;;;;5173714;27;20033;-87
2023/06/15 02:07:40;;;;;;;14.77;13.45;;;14.90;99.90;;;;;;5154522;27;20046;-87
2023/06/15 02:10:06;;;;;;;12.88;11.57;;;14.90;99.90;;;;;;5173552;27;20030;-87
2023/06/15 02:12:32;;;;;;;12.52;11.05;;;14.80;99.90;;;;;;5173552;27;20117;-87
2023/06/15 02:14:57;;;;;;;14.70;13.18;;;14.80;99.90;;;;;;5173146;27;20495;-87
2023/06/15 02:17:30;;;;;;;16.55;14.95;;;14.80;99.90;;;;;;5173444;27;20038;-87
2023/06/15 02:19:56;;;;;;;20.10;18.73;;;14.80;99.90;;;;;;5173572;27;20087;-87
2023/06/15 02:22:22;;;;;;;15.48;14.00;;;14.80;99.90;;;;;;5154682;27;20067;-87
2023/06/15 02:24:48;;;;;;;18.45;16.65;;;14.70;99.90;;;;;;5173553;27;20036;-87
2023/06/15 02:27:14;;;;;;;19.23;17.67;;;14.70;99.90;;;;;;5136810;27;20098;-88
2023/06/15 02:29:40;;;;;;;15.30;13.70;;;14.60;99.90;;;;;;5172878;27;20031;-88
2023/06/15 02:32:06;;;;;;;16.50;14.95;;;14.60;99.90;;;;;;5154853;27;20045;-87
2023/06/15 02:34:34;;;;;;;17.35;16.00;;;14.50;99.90;;;;;;5154413;27;20090;-88
2023/06/15 02:37:00;;;;;;;18.80;17.20;;;14.50;99.90;;;;;;5136746;27;20038;-88
2023/06/15 02:39:26;;;;;;;14.18;12.52;;;14.40;99.90;;;;;;5154505;27;20030;-87
2023/06/15 02:41:51;;;;;;;15.27;13.93;;;14.40;99.90;;;;;;5172250;27;20030;-87
2023/06/15 02:44:17;;;;;;;16.98;15.55;;;14.40;99.90;;;;;;5154625;27;20098;-86
2023/06/15 02:46:43;;;;;;;14.40;13.20;;;14.40;99.90;;;;;;5154496;27;20107;-87
2023/06/15 02:49:09;;;;;;;20.20;18.42;;;14.40;99.90;;;;;;5136649;27;20480;-87
2023/06/15 02:51:37;;;;;;;17.95;16.55;;;14.40;99.90;;;;;;5177313;27;20022;-88
2023/06/15 02:54:04;;;;;;;16.20;14.85;;;14.50;99.90;;;;;;5163473;27;20042;-88
2023/06/15 02:56:29;;;;;;;14.02;12.32;;;14.40;99.90;;;;;;5175154;27;20113;-87
2023/06/15 02:58:55;;;;;;;17.42;16.05;;;14.40;99.90;;;;;;5136806;27;20109;-87
2023/06/15 03:01:22;;;;;;;16.45;14.65;;;14.40;99.90;;;;;;5172630;27;20440;-87
2023/06/15 03:03:48;;;;;;;18.15;16.42;;;14.50;99.90;;;;;;5154091;27;20026;-87
2023/06/15 03:06:16;;;;;;;18.48;16.58;;;14.50;99.90;;;;;;5172061;27;20037;-87
2023/06/15 03:08:42;;;;;;;17.73;16.30;;;14.50;99.90;;;;;;5153292;27;20042;-87
2023/06/15 03:11:08;;;;;;;18.27;16.48;;;14.50;99.90;;;;;;5153409;27;20399;-87
2023/06/15 03:13:34;;;;;;;15.35;13.88;;;14.50;99.90;;;;;;5153613;27;20513;-87
2023/06/15 03:16:01;;;;;;;16.60;15.18;;;14.40;99.90;;;;;;5153518;27;20050;-87
2023/06/15 03:18:28;;;;;;;18.80;16.98;;;14.50;99.90;;;;;;5153586;27;20404;-87
2023/06/15 03:20:53;;;;;;;15.77;14.20;;;14.50;99.90;;;;;;5153661;27;20110;-87
2023/06/15 03:23:19;;;;;;;19.40;17.40;;;14.60;99.90;;;;;;5153415;27;20483;-87
2023/06/15 03:25:45;;;;;;;17.50;15.57;;;14.50;99.90;;;;;;5152602;27;20052;-87
2023/06/15 03:28:11;;;;;;;14.40;13.10;;;14.50;99.90;;;;;;5153222;27;20473;-87
2023/06/15 03:30:40;;;;;;;17.83;14.93;;;14.50;99.90;;;;;;5153590;27;20377;-88
2023/06/15 03:33:06;;;;;;;15.15;12.77;;;14.60;99.90;;;;;;5171966;27;20061;-87
2023/06/15 03:35:33;;;;;;;17.33;15.82;;;14.60;99.90;;;;;;5135844;27;20049;-87
2023/06/15 03:37:58;;;;;;;15.82;14.10;;;14.60;99.90;;;;;;5152982;27;20448;-87
2023/06/15 03:40:24;;;;;;;15.00;13.52;;;14.60;99.90;;;;;;5152897;27;20117;-87
2023/06/15 03:42:50;;;;;;;13.38;11.35;;;14.60;99.90;;;;;;5153578;27;20073;-87
2023/06/15 03:45:17;;;;;;;12.50;10.00;;;14.50;99.90;;;;;;5172024;27;20564;-88
2023/06/15 03:47:45;;;;;;;18.25;16.52;;;14.50;99.90;;;;;;5156392;27;20411;-87
2023/06/15 03:50:11;;;;;;;15.32;13.85;;;14.60;99.90;;;;;;5182253;27;20038;-87
2023/06/15 03:52:37;;;;;;;12.23;11.02;;;14.60;99.90;;;;;;5157345;27;20037;-87
2023/06/15 03:55:03;;;;;;;13.02;10.60;;;14.60;99.90;;;;;;5171306;27;20042;-87
2023/06/15 03:57:29;;;;;;;12.80;11.60;;;14.60;99.90;;;;;;5135210;27;20463;-88
2023/06/15 03:59:55;;;;;;;13.02;10.85;;;14.70;99.90;;;;;;5181436;27;20042;-87
2023/06/15 04:02:20;;;;;;;14.27;9.80;;;14.70;99.90;;;;;;5138748;27;20133;-84
2023/06/15 04:04:46;;;;;;;11.35;10.27;;;14.70;99.90;;;;;;5170699;27;20041;-87
2023/06/15 04:07:12;;;;;;;10.93;8.45;;;14.80;99.90;;;;;;5152350;27;20056;-87
2023/06/15 04:09:37;;;;;;;13.30;10.25;;;14.80;99.90;;;;;;5152265;27;20081;-87
2023/06/15 04:12:03;;;;;;;13.77;10.52;;;14.80;99.90;;;;;;5136259;27;20026;-87
2023/06/15 04:14:30;;;;;;;13.02;8.70;;;14.80;99.90;;;;;;5135445;27;20041;-87
2023/06/15 04:16:55;;;;;;;12.80;11.55;;;14.90;99.90;;;;;;5135416;27;20038;-87
2023/06/15 04:19:22;;;;;;;9.88;8.85;;;14.90;99.90;;;;;;5152737;27;20479;-88
2023/06/15 04:21:49;;;;;;;11.05;10.00;;;14.90;99.90;;;;;;5156975;27;20038;-84
2023/06/15 04:24:14;;;;;;;9.90;8.10;;;15.10;99.90;;;;;;5134009;27;20038;-84
2023/06/15 04:26:41;;;;;;;8.10;7.07;;;15.00;99.90;;;;;;5170910;27;20085;-85
2023/06/15 04:29:07;;;;;;;10.00;8.93;;;15.10;99.90;;;;;;5171170;27;20038;-86
2023/06/15 04:31:33;;;;;;;10.52;9.20;;;15.20;99.90;;;;;;5170438;27;20034;-84
2023/06/15 04:34:06;;;;;;;12.48;8.55;;;15.20;99.90;;;;;;5170879;27;20114;-85
2023/06/15 04:36:34;;;;;;;13.40;9.27;;;15.30;99.90;;;;;;5171501;27;20077;-88
2023/06/15 04:39:00;;;;;;;11.27;8.30;;;15.30;99.90;;;;;;5172342;27;20109;-86
2023/06/15 04:41:29;;;;;;;11.18;8.82;;;15.30;99.90;;;;;;5176002;27;20034;-93
2023/06/15 04:43:55;;;;;;;11.75;8.20;;;15.30;99.90;;;;;;5181892;27;20028;-94
2023/06/15 04:46:21;;;;;;;11.48;8.05;;;15.50;99.90;;;;;;5180486;27;20038;-94
2023/06/15 04:48:47;;;;;;;11.93;10.75;;;15.70;99.90;;;;;;5170913;27;20034;-94
2023/06/15 04:51:13;;;;;;;11.65;10.40;;;15.90;99.90;;;;;;5161573;27;20034;-94
2023/06/15 04:53:42;;;;;;;12.73;11.40;;;15.90;99.90;;;;;;5158270;27;20403;-93
2023/06/15 04:56:08;;;;;;;11.68;10.68;;;16.00;99.90;;;;;;5158250;27;20034;-93
2023/06/15 04:58:33;;;;;;;16.52;12.75;;;16.00;99.90;;;;;;5160632;27;20038;-94
2023/06/15 05:00:59;;;;;;;11.30;9.98;;;16.20;99.90;;;;;;5158287;27;20501;-95
2023/06/15 05:03:25;;;;;;;11.60;10.55;;;16.30;99.90;;;;;;5158743;27;20030;-93
2023/06/15 05:05:50;;;;;;;19.77;18.33;;;16.50;99.90;;;;;;5157735;27;20041;-93
2023/06/15 05:08:16;;;;;;;13.48;12.10;;;16.60;99.90;;;;;;5176032;27;20134;-94
2023/06/15 05:10:42;;;;;;;11.73;8.52;;;16.60;99.90;;;;;;5176568;27;20057;-92
2023/06/15 05:13:07;;;;;;;13.38;9.68;;;17.10;99.90;;;;;;5158960;27;20138;-84
2023/06/15 05:15:34;;;;;;;9.90;7.25;;;18.50;99.90;;;;;;5155777;27;20045;-84
2023/06/15 05:18:00;;;;;;;7.45;6.75;;;20.00;99.90;;;;;;5155556;27;20236;-85
2023/06/15 05:20:25;;;;;;;6.85;5.07;;;21.50;99.90;;;;;;5155436;27;20291;-83
2023/06/15 05:22:51;;;;;;;8.27;3.88;;;22.60;99.90;;;;;;5137802;27;20052;-83
2023/06/15 05:25:20;;;;;;;8.52;4.10;;;23.70;99.30;;;;;;5155017;27;20038;-83
2023/06/15 05:27:47;;;;;;;6.35;4.00;;;24.40;96.20;;;;;;5155434;27;20038;-83
2023/06/15 05:30:13;;;;;;;13.90;11.30;;;25.00;95.50;;;;;;5155029;27;20475;-83
2023/06/15 05:32:39;;;;;;;68.68;64.28;;;25.90;94.10;;;;;;5174204;27;20073;-83
2023/06/15 05:35:07;;;;;;;270.90;254.65;;;26.20;92.60;;;;;;5154564;27;20030;-83
2023/06/15 05:37:33;;;;;;;396.23;371.67;;;26.70;91.40;;;;;;5173772;27;20041;-84
2023/06/15 05:39:59;;;;;;;522.60;487.55;;;27.10;91.70;;;;;;5158460;27;20043;-85
2023/06/15 05:42:26;;;;;;;658.13;609.70;;;27.50;90.90;;;;;;5179348;27;20381;-83
2023/06/15 05:44:51;;;;;;;768.03;709.10;;;27.60;90.00;;;;;;5156788;27;20436;-83
2023/06/15 05:47:17;;;;;;;897.90;821.22;;;28.00;89.00;;;;;;5155488;27;20034;-83
2023/06/15 05:49:43;;;;;;;1007.95;908.50;;;28.70;88.70;;;;;;5154731;27;20400;-83
2023/06/15 05:52:09;;;;;;;931.47;849.53;;;28.70;87.10;;;;;;5173724;27;20041;-83
2023/06/15 05:54:34;;;;;;;1054.18;941.28;;;28.80;84.00;;;;;;5173428;27;20034;-84
2023/06/15 05:57:01;;;;;;;1122.22;970.83;;;29.30;85.30;;;;;;5173244;27;20046;-84
2023/06/15 05:59:27;;;;;;;1383.22;999.90;;;29.10;82.70;;;;;;5173557;27;20034;-84
2023/06/15 06:01:53;;;;;;;1332.60;999.90;;;29.30;82.90;;;;;;5173859;27;20392;-84
2023/06/15 06:04:19;;;;;;;1489.97;999.90;;;29.70;81.40;;;;;;5172575;27;20023;-84
2023/06/15 06:06:44;;;;;;;1322.43;999.90;;;30.00;80.00;;;;;;5173338;27;20563;-84
2023/06/15 06:09:10;;;;;;;1800.70;999.90;;;30.40;80.10;;;;;;5137781;27;20050;-84
2023/06/15 06:11:36;;;;;;;1927.47;999.90;;;30.40;80.80;;;;;;5154743;27;20038;-84
2023/06/15 06:14:01;;;;;;;1999.90;999.90;;;30.50;79.20;;;;;;5154319;27;20475;-84
2023/06/15 06:16:27;;;;;;;1999.90;999.90;;;30.60;77.60;;;;;;5154234;27;20092;-83
2023/06/15 06:18:53;;;;;;;1880.47;999.90;;;30.60;78.80;;;;;;5136843;27;20057;-84
2023/06/15 06:21:18;;;;;;;1938.07;999.90;;;30.90;77.20;;;;;;5154281;27;20041;-84
2023/06/15 06:23:44;;;;;;;1999.90;999.90;;;30.70;75.40;;;;;;5137330;27;20125;-84
2023/06/15 06:26:10;;;;;;;1999.90;999.90;;;30.70;76.80;;;;;;5137131;27;20102;-84
2023/06/15 06:28:36;;;;;;;1999.90;999.90;;;30.50;76.00;;;;;;5154258;27;20034;-84
2023/06/15 06:31:02;;;;;;;1999.90;999.90;;;30.80;77.50;;;;;;5173200;27;20210;-84
2023/06/15 06:33:27;;;;;;;1999.90;999.90;;;31.00;75.90;;;;;;5153585;27;20567;-84
2023/06/15 06:35:53;;;;;;;1999.90;999.90;;;31.20;75.90;;;;;;5160231;27;20038;-84
2023/06/15 06:38:19;;;;;;;1999.90;999.90;;;31.50;77.20;;;;;;5161109;27;20034;-84
2023/06/15 06:40:44;;;;;;;1999.90;999.90;;;31.50;76.10;;;;;;5157855;27;20078;-84
2023/06/15 06:43:10;;;;;;;1999.90;999.90;;;31.60;75.80;;;;;;5137008;27;20092;-84
2023/06/15 06:45:35;;;;;;;1999.90;999.90;;;31.70;75.30;;;;;;5136668;27;20027;-84
2023/06/15 06:48:01;;;;;;;1999.90;999.90;;;31.90;75.20;;;;;;5172057;27;20095;-84
2023/06/15 06:50:26;;;;;;;1999.90;999.90;;;32.20;75.70;;;;;;5172830;27;20029;-84
2023/06/15 06:52:52;;;;;;;1999.90;999.90;;;32.20;74.90;;;;;;5172719;27;20038;-84
2023/06/15 06:55:18;;;;;;;1999.90;999.90;;;31.90;74.20;;;;;;5153513;27;20118;-84
2023/06/15 06:57:44;;;;;;;1999.90;999.90;;;32.10;75.20;;;;;;5172567;27;20030;-84
2023/06/15 07:00:10;;;;;;;1999.90;999.90;;;32.10;74.90;;;;;;5153894;27;20091;-84
2023/06/15 07:02:36;;;;;;;1999.90;999.90;;;32.20;74.20;;;;;;5135705;27;20044;-84
2023/06/15 07:05:01;;;;;;;1999.90;999.90;;;32.40;74.20;;;;;;5153541;27;20034;-83
2023/06/15 07:07:27;;;;;;;1999.90;999.90;;;32.50;73.80;;;;;;5136137;27;20054;-84
2023/06/15 07:09:53;;;;;;;1999.90;999.90;;;32.20;72.80;;;;;;5153805;27;20069;-84
2023/06/15 07:12:18;;;;;;;1999.90;999.90;;;31.50;73.40;;;;;;5153618;27;20038;-84
2023/06/15 07:14:44;;;;;;;1999.90;999.90;;;31.60;73.10;;;;;;5153407;27;20066;-84
2023/06/15 07:17:09;;;;;;;1999.90;999.90;;;31.80;72.20;;;;;;5152754;27;20050;-84
2023/06/15 07:19:35;;;;;;;1999.90;999.90;;;32.10;72.90;;;;;;5153657;27;20031;-84
2023/06/15 07:22:01;;;;;;;1999.90;999.90;;;32.20;72.70;;;;;;5153504;27;20078;-84
2023/06/15 07:24:26;;;;;;;1999.90;999.90;;;32.20;72.70;;;;;;5172147;27;20491;-84
2023/06/15 07:26:52;;;;;;;1999.90;999.90;;;32.60;73.80;;;;;;5153401;27;20403;-84
2023/06/15 07:29:17;;;;;;;1999.90;999.90;;;32.50;73.30;;;;;;5136359;27;20070;-84
2023/06/15 07:31:43;;;;;;;1999.90;999.90;;;32.90;72.60;;;;;;5153674;27;20407;-84
2023/06/15 07:34:08;;;;;;;1999.90;999.90;;;32.70;72.00;;;;;;5159123;27;20045;-84
2023/06/15 07:36:35;;;;;;;1999.90;999.90;;;32.30;72.50;;;;;;5155796;27;20576;-84
2023/06/15 07:39:00;;;;;;;1999.90;999.90;;;32.70;72.70;;;;;;5153829;27;20121;-84
2023/06/15 07:41:26;;;;;;;1999.90;999.90;;;32.80;72.00;;;;;;5153213;27;20160;-84
2023/06/15 07:43:51;;;;;;;1999.90;999.90;;;33.20;71.80;;;;;;5153097;27;20117;-84
2023/06/15 07:46:17;;;;;;;1999.90;999.90;;;33.10;71.60;;;;;;5170932;27;20038;-84
2023/06/15 07:48:42;;;;;;;1999.90;999.90;;;32.80;71.80;;;;;;5172660;27;20368;-84
2023/06/15 07:51:08;;;;;;;1999.90;999.90;;;32.50;71.40;;;;;;5172135;27;20066;-84
2023/06/15 07:53:34;;;;;;;1999.90;999.90;;;32.40;71.80;;;;;;5153126;27;20437;-84
2023/06/15 07:55:59;;;;;;;1999.90;999.90;;;32.80;71.70;;;;;;5152600;27;20038;-84
2023/06/15 07:58:25;;;;;;;1999.90;999.90;;;33.00;70.10;;;;;;5152964;27;20035;-84
2023/06/15 08:00:50;;;;;;;1999.90;999.90;;;33.30;71.80;;;;;;5171040;27;20034;-84
2023/06/15 08:03:16;;;;;;;1999.90;999.90;;;33.20;70.80;;;;;;5152926;27;20415;-83
2023/06/15 08:05:42;;;;;;;1999.90;999.90;;;32.90;70.00;;;;;;5171281;27;20042;-84
2023/06/15 08:08:07;;;;;;;1999.90;999.90;;;32.40;70.00;;;;;;5152552;27;20101;-84
2023/06/15 08:10:33;;;;;;;1999.90;999.90;;;32.40;70.80;;;;;;5152967;27;20046;-84
2023/06/15 08:12:58;;;;;;;1999.90;999.90;;;32.60;71.50;;;;;;5172544;27;20158;-84
2023/06/15 08:15:24;;;;;;;1999.90;999.90;;;32.50;71.00;;;;;;5156336;27;20038;-83
2023/06/15 08:17:50;;;;;;;1999.90;999.90;;;32.50;70.30;;;;;;5156958;27;20035;-83
2023/06/15 08:20:15;;;;;;;1999.90;999.90;;;32.30;70.80;;;;;;5157247;27;20038;-84
2023/06/15 08:22:42;;;;;;;1999.90;999.90;;;32.20;70.90;;;;;;5156773;27;20034;-83
2023/06/15 08:25:09;;;;;;;1999.90;999.90;;;32.10;70.70;;;;;;5176096;27;20041;-84
2023/06/15 08:27:35;;;;;;;1999.90;999.90;;;31.50;70.50;;;;;;5139244;27;20505;-84
2023/06/15 08:30:01;;;;;;;1999.90;999.90;;;31.60;71.00;;;;;;5145952;27;20048;-84
2023/06/15 08:32:26;;;;;;;1999.90;999.90;;;31.80;71.50;;;;;;5181773;27;20094;-84
2023/06/15 08:34:52;;;;;;;1999.90;999.90;;;31.60;71.30;;;;;;5176517;27;20057;-84
2023/06/15 08:37:18;;;;;;;1999.90;999.90;;;31.20;71.00;;;;;;5139626;27;20083;-83
2023/06/15 08:39:43;;;;;;;1999.90;999.90;;;31.00;71.30;;;;;;5156891;27;20483;-84
2023/06/15 08:42:09;;;;;;;1999.90;999.90;;;30.50;71.70;;;;;;5175326;27;20468;-83
2023/06/15 08:44:35;;;;;;;1995.95;999.90;;;30.70;72.10;;;;;;5154954;27;20107;-83
2023/06/15 08:47:01;;;;;;;1983.97;999.90;;;30.50;71.90;;;;;;5155855;27;20030;-83
2023/06/15 08:49:30;;;;;;;1999.90;999.90;;;30.80;72.10;;;;;;5156163;27;20216;-83
2023/06/15 08:51:57;;;;;;;1966.80;999.90;;;30.80;71.70;;;;;;5174975;27;20030;-83
2023/06/15 08:54:33;;;;;;;1938.50;999.90;;;30.60;71.60;;;;;;5174616;27;20066;-84
2023/06/15 08:56:59;;;;;;;1883.03;999.90;;;30.30;70.80;;;;;;5173990;27;20531;-83
2023/06/15 08:59:25;;;;;;;1612.28;999.90;;;30.20;71.50;;;;;;5173949;27;20113;-83
2023/06/15 09:01:53;;;;;;;1753.07;999.90;;;30.20;71.90;;;;;;5174492;27;20380;-84
2023/06/15 09:04:19;;;;;;;1550.57;999.90;;;29.70;71.90;;;;;;5174648;27;20404;-83
2023/06/15 09:06:44;;;;;;;1464.40;999.90;;;29.10;71.90;;;;;;5138820;27;20046;-82
2023/06/15 09:09:10;;;;;;;1149.50;968.03;;;29.00;73.50;;;;;;5174373;27;20043;-83
2023/06/15 09:11:46;;;;;;;1239.43;995.63;;;28.90;71.70;;;;;;5155340;27;20341;-83
2023/06/15 09:14:12;;;;;;;1132.13;970.78;;;28.80;71.80;;;;;;5154615;27;20051;-83
2023/06/15 09:16:39;;;;;;;1131.45;966.53;;;28.60;72.20;;;;;;5173970;27;20045;-83
2023/06/15 09:19:11;;;;;;;1096.88;957.38;;;28.70;72.80;;;;;;5174213;27;20031;-83
2023/06/15 09:21:58;;;;;;;1054.32;942.58;;;28.40;71.30;;;;;;5155410;27;20564;-83
2023/06/15 09:24:24;;;;;;;997.42;900.45;;;28.40;72.60;;;;;;5137544;27;20566;-83
2023/06/15 09:26:50;;;;;;;1000.75;904.20;;;28.20;71.20;;;;;;5143902;27;20034;-84
2023/06/15 09:29:15;;;;;;;976.22;885.35;;;28.20;71.30;;;;;;5177509;27;20034;-83
2023/06/15 09:31:41;;;;;;;934.42;850.90;;;28.30;72.10;;;;;;5174230;27;20087;-83
2023/06/15 09:34:09;;;;;;;994.72;898.05;;;28.30;69.90;;;;;;5174023;27;20113;-84
2023/06/15 09:36:44;;;;;;;1012.55;912.97;;;28.40;71.70;;;;;;5154665;27;20078;-83
2023/06/15 09:39:13;;;;;;;982.78;887.17;;;28.70;72.70;;;;;;5173501;27;20046;-83
2023/06/15 09:42:02;;;;;;;962.00;872.85;;;28.90;71.60;;;;;;5154501;27;20048;-83
2023/06/15 09:44:28;;;;;;;918.20;836.47;;;28.50;70.80;;;;;;5155017;27;20038;-84
2023/06/15 09:46:58;;;;;;;922.70;841.05;;;28.50;71.20;;;;;;5173464;27;20041;-83
2023/06/15 09:49:26;;;;;;;958.03;868.80;;;28.70;71.00;;;;;;5155173;27;20102;-83
2023/06/15 09:51:52;;;;;;;922.20;841.50;;;28.80;72.20;;;;;;5154502;27;20042;-83
2023/06/15 09:54:22;;;;;;;946.47;860.53;;;28.70;71.10;;;;;;5173635;27;20073;-83
2023/06/15 09:56:50;;;;;;;872.70;800.55;;;28.80;70.70;;;;;;5153789;27;20042;-82
2023/06/15 09:59:16;;;;;;;926.25;843.85;;;28.40;70.50;;;;;;5154388;27;20097;-83
2023/06/15 10:01:45;;;;;;;805.83;742.15;;;28.10;70.90;;;;;;5154379;27;20048;-83
2023/06/15 10:04:13;;;;;;;845.10;776.63;;;27.80;70.60;;;;;;5137131;27;20030;-83
2023/06/15 10:06:40;;;;;;;728.53;673.72;;;27.90;70.80;;;;;;5153927;27;20046;-82
2023/06/15 10:09:09;;;;;;;804.30;740.05;;;28.00;70.40;;;;;;5154259;27;20034;-83
2023/06/15 10:11:41;;;;;;;825.78;758.67;;;28.00;71.00;;;;;;5136351;27;20046;-82
2023/06/15 10:14:19;;;;;;;748.85;692.10;;;28.20;70.40;;;;;;5153854;27;20037;-83
2023/06/15 10:16:51;;;;;;;714.20;660.55;;;28.00;69.20;;;;;;5136779;27;20106;-82
2023/06/15 10:19:21;;;;;;;715.65;662.45;;;28.00;67.60;;;;;;5137200;27;20031;-83
2023/06/15 10:21:47;;;;;;;671.10;622.20;;;27.90;69.20;;;;;;5154198;27;20103;-82
2023/06/15 10:24:16;;;;;;;708.58;656.25;;;27.60;68.10;;;;;;5139888;27;20034;-83
2023/06/15 10:26:43;;;;;;;676.50;626.92;;;27.50;69.10;;;;;;5155086;27;20049;-83
2023/06/15 10:29:25;;;;;;;687.33;636.55;;;27.30;69.30;;;;;;5153551;27;20253;-83
2023/06/15 10:32:09;;;;;;;659.85;611.92;;;27.40;70.60;;;;;;5153958;27;20045;-82
2023/06/15 10:34:40;;;;;;;599.47;557.58;;;27.60;71.70;;;;;;5153588;27;20102;-82
2023/06/15 10:37:21;;;;;;;616.72;573.30;;;28.00;69.80;;;;;;5152313;27;20046;-83
2023/06/15 10:39:49;;;;;;;609.45;566.60;;;27.90;70.10;;;;;;5135922;27;20023;-82
2023/06/15 10:42:15;;;;;;;593.03;551.65;;;28.00;69.70;;;;;;5153269;27;20487;-82
2023/06/15 10:44:41;;;;;;;633.38;588.30;;;27.90;68.40;;;;;;5153146;27;20037;-83
2023/06/15 10:47:13;;;;;;;617.08;572.65;;;27.50;68.60;;;;;;5172068;27;20045;-82
2023/06/15 10:49:52;;;;;;;552.83;514.05;;;27.30;69.50;;;;;;5153363;27;20035;-82
2023/06/15 10:52:18;;;;;;;565.63;525.80;;;27.40;68.30;;;;;;5172068;27;20038;-82
2023/06/15 10:54:44;;;;;;;568.67;529.10;;;27.30;69.10;;;;;;5152191;27;20085;-83
2023/06/15 10:57:16;;;;;;;489.77;457.92;;;27.40;68.40;;;;;;5153277;27;20079;-83
2023/06/15 10:59:53;;;;;;;588.63;547.93;;;27.50;67.50;;;;;;5171761;27;20069;-82
2023/06/15 11:02:27;;;;;;;538.80;501.52;;;27.60;69.60;;;;;;5171756;27;20046;-83
2023/06/15 11:04:59;;;;;;;554.97;516.38;;;27.30;69.20;;;;;;5153224;27;20038;-83
2023/06/15 11:07:29;;;;;;;532.63;495.88;;;27.40;69.70;;;;;;5170965;27;20048;-82
2023/06/15 11:10:09;;;;;;;476.67;445.85;;;27.50;69.40;;;;;;5152534;27;20505;-83
2023/06/15 11:12:37;;;;;;;398.60;374.13;;;27.60;67.60;;;;;;5152824;27;20042;-82
2023/06/15 11:15:05;;;;;;;523.13;487.83;;;27.60;66.50;;;;;;5152904;27;20069;-82
2023/06/15 11:17:51;;;;;;;482.35;450.70;;;27.70;67.20;;;;;;5152882;27;20042;-82
2023/06/15 11:20:38;;;;;;;504.67;470.23;;;27.70;67.40;;;;;;5152923;27;20038;-81
2023/06/15 11:23:14;;;;;;;411.77;386.15;;;27.70;66.60;;;;;;5152636;27;20038;-82
2023/06/15 11:25:48;;;;;;;545.25;508.13;;;27.90;66.50;;;;;;5135545;27;20065;-83
2023/06/15 11:28:24;;;;;;;572.55;532.78;;;28.10;68.00;;;;;;5171396;27;20038;-83
2023/06/15 11:30:51;;;;;;;543.88;506.52;;;28.10;68.20;;;;;;5171362;27;20049;-83
2023/06/15 11:33:37;;;;;;;574.03;533.67;;;28.00;67.80;;;;;;5152911;27;20046;-83
2023/06/15 11:36:07;;;;;;;573.90;533.75;;;28.00;68.00;;;;;;5171070;27;20256;-83
2023/06/15 11:38:33;;;;;;;570.33;530.47;;;28.00;68.50;;;;;;5151889;27;20046;-83
2023/06/15 11:41:03;;;;;;;630.53;585.05;;;28.10;68.00;;;;;;5152494;27;20422;-83
2023/06/15 11:43:37;;;;;;;514.15;480.80;;;28.30;68.50;;;;;;5152410;27;20030;-83
2023/06/15 11:46:03;;;;;;;595.10;553.30;;;28.30;68.90;;;;;;5152394;27;20490;-84
2023/06/15 11:48:29;;;;;;;562.17;523.47;;;28.40;67.00;;;;;;5151906;27;20090;-83
2023/06/15 11:50:56;;;;;;;633.08;587.45;;;28.50;66.50;;;;;;5135010;27;20069;-83
2023/06/15 11:53:22;;;;;;;578.53;537.85;;;28.40;67.30;;;;;;5134611;27;20042;-83
2023/06/15 11:55:47;;;;;;;620.80;576.30;;;28.20;66.60;;;;;;5152355;27;20395;-85
2023/06/15 11:58:13;;;;;;;686.30;635.95;;;28.00;67.60;;;;;;5134992;27;20082;-83
2023/06/15 12:00:39;;;;;;;628.55;583.50;;;28.00;68.40;;;;;;5152051;27;20042;-84
2023/06/15 12:03:10;;;;;;;589.17;547.50;;;28.00;67.50;;;;;;5152396;27;20078;-83
2023/06/15 12:05:35;;;;;;;581.83;541.28;;;28.00;68.10;;;;;;5134637;27;20577;-84
2023/06/15 12:08:02;;;;;;;566.38;526.25;;;27.90;67.20;;;;;;5134338;27;20066;-83
2023/06/15 12:10:29;;;;;;;575.03;535.13;;;27.60;66.90;;;;;;5170780;27;20050;-83
2023/06/15 12:12:58;;;;;;;537.80;501.13;;;27.70;68.10;;;;;;5134961;27;20391;-83
2023/06/15 12:15:24;;;;;;;531.58;496.25;;;28.00;67.50;;;;;;5170677;27;20479;-83
2023/06/15 12:17:50;;;;;;;492.42;459.75;;;27.60;67.10;;;;;;5152162;27;20042;-83